createdAt,value
2023-01-29T00:02:07.039Z,12.75
2023-01-29T00:04:34.117Z,14.30
2023-01-29T00:07:00.758Z,13.95
2023-01-29T00:09:28.479Z,13.77
2023-01-29T00:11:55.101Z,13.23
2023-01-29T00:14:21.722Z,13.13
2023-01-29T00:16:48.528Z,13.95
2023-01-29T00:19:15.230Z,13.00
2023-01-29T00:21:41.806Z,13.68
2023-01-29T00:24:08.479Z,14.30
2023-01-29T00:26:35.164Z,13.45
2023-01-29T00:29:02.571Z,13.75
2023-01-29T00:31:29.300Z,13.30
2023-01-29T00:33:56.027Z,13.30
2023-01-29T00:36:22.776Z,12.97
2023-01-29T00:38:58.960Z,14.10
2023-01-29T00:41:49.288Z,13.50
2023-01-29T00:44:34.733Z,13.63
2023-01-29T00:47:01.373Z,12.75
2023-01-29T00:49:28.034Z,12.50
2023-01-29T00:52:13.642Z,13.57
2023-01-29T00:54:40.291Z,13.98
2023-01-29T00:57:06.902Z,13.55
2023-01-29T00:59:33.473Z,14.52
2023-01-29T01:02:18.704Z,13.27
2023-01-29T01:04:45.299Z,13.57
2023-01-29T01:07:14.584Z,12.98
2023-01-29T01:10:00.002Z,13.55
2023-01-29T01:12:27.568Z,12.90
2023-01-29T01:14:54.208Z,12.97
2023-01-29T01:17:20.811Z,12.35
2023-01-29T01:19:47.512Z,12.68
2023-01-29T01:22:14.170Z,12.02
2023-01-29T01:24:40.752Z,12.80
2023-01-29T01:27:07.620Z,12.97
2023-01-29T01:29:34.293Z,12.70
2023-01-29T01:32:01.236Z,12.80
2023-01-29T01:34:28.612Z,11.73
2023-01-29T01:36:56.232Z,12.85
2023-01-29T01:39:24.058Z,13.07
2023-01-29T01:41:53.622Z,12.95
2023-01-29T01:44:59.317Z,12.57
2023-01-29T01:47:35.343Z,12.13
2023-01-29T01:50:14.127Z,12.75
2023-01-29T01:52:45.112Z,13.37
2023-01-29T01:55:15.090Z,12.38
2023-01-29T01:57:44.799Z,12.65
2023-01-29T02:00:16.663Z,12.60
2023-01-29T02:03:04.404Z,12.18
2023-01-29T02:05:52.482Z,13.40
2023-01-29T02:08:49.344Z,13.05
2023-01-29T02:11:17.294Z,12.68
2023-01-29T02:13:44.393Z,13.20
2023-01-29T02:16:10.968Z,12.82
2023-01-29T02:18:39.351Z,13.27
2023-01-29T02:21:14.886Z,12.20
2023-01-29T02:24:06.048Z,12.82
2023-01-29T02:26:53.531Z,12.95
2023-01-29T02:29:33.571Z,13.77
2023-01-29T02:32:31.081Z,12.30
2023-01-29T02:35:25.023Z,12.70
2023-01-29T02:37:54.493Z,12.45
2023-01-29T02:40:23.797Z,12.80
2023-01-29T02:43:04.293Z,13.43
2023-01-29T02:45:46.145Z,13.27
2023-01-29T02:48:22.141Z,14.13
2023-01-29T02:50:57.940Z,12.98
2023-01-29T02:53:29.723Z,13.40
2023-01-29T02:56:15.379Z,13.65
2023-01-29T02:58:45.735Z,13.80
2023-01-29T03:01:47.983Z,13.10
2023-01-29T03:04:21.611Z,12.80
2023-01-29T03:07:03.207Z,13.15
2023-01-29T03:09:48.615Z,13.20
2023-01-29T03:12:33.569Z,13.50
2023-01-29T03:15:12.320Z,13.30
2023-01-29T03:17:57.930Z,14.65
2023-01-29T03:20:32.085Z,13.05
2023-01-29T03:23:06.369Z,14.38
2023-01-29T03:25:53.630Z,13.40
2023-01-29T03:28:40.651Z,13.35
2023-01-29T03:31:30.621Z,14.13
2023-01-29T03:34:03.827Z,14.00
2023-01-29T03:36:45.234Z,14.48
2023-01-29T03:39:14.408Z,14.97
2023-01-29T03:41:47.501Z,14.35
2023-01-29T03:44:40.257Z,15.27
2023-01-29T03:47:42.214Z,15.93
2023-01-29T03:50:37.010Z,14.55
2023-01-29T03:53:27.980Z,14.07
2023-01-29T03:56:20.871Z,15.27
2023-01-29T03:59:02.083Z,16.35
2023-01-29T04:01:48.615Z,15.98
2023-01-29T04:04:19.879Z,15.95
2023-01-29T04:06:49.507Z,16.37
2023-01-29T04:09:23.871Z,15.10
2023-01-29T04:12:11.586Z,17.40
2023-01-29T04:14:39.151Z,15.63
2023-01-29T04:17:16.864Z,16.50
2023-01-29T04:19:44.295Z,16.17
2023-01-29T04:22:17.659Z,15.95
2023-01-29T04:24:44.535Z,16.70
2023-01-29T04:27:35.724Z,16.27
2023-01-29T04:30:13.005Z,16.30
2023-01-29T04:32:48.207Z,16.67
2023-01-29T04:35:20.938Z,15.95
2023-01-29T04:38:06.208Z,16.77
2023-01-29T04:41:03.206Z,15.23
2023-01-29T04:43:53.497Z,15.95
2023-01-29T04:46:26.364Z,15.20
2023-01-29T04:49:01.791Z,15.70
2023-01-29T04:51:46.857Z,15.52
2023-01-29T04:54:23.314Z,16.02
2023-01-29T04:56:55.484Z,16.15
2023-01-29T04:59:43.939Z,16.43
2023-01-29T05:02:12.519Z,16.40
2023-01-29T05:04:41.488Z,16.08
2023-01-29T05:07:12.012Z,16.92
2023-01-29T05:09:40.014Z,16.33
2023-01-29T05:12:10.602Z,17.57
2023-01-29T05:14:39.492Z,16.38
2023-01-29T05:17:13.548Z,16.77
2023-01-29T05:19:40.224Z,16.75
2023-01-29T05:22:11.083Z,16.48
2023-01-29T05:24:37.977Z,16.50
2023-01-29T05:27:23.100Z,17.15
2023-01-29T05:29:49.721Z,15.20
2023-01-29T05:32:16.450Z,17.52
2023-01-29T05:34:43.073Z,17.33
2023-01-29T05:37:10.777Z,16.40
2023-01-29T05:39:37.360Z,17.27
2023-01-29T05:42:04.099Z,16.75
2023-01-29T05:44:30.716Z,17.63
2023-01-29T05:46:57.393Z,17.50
2023-01-29T05:49:24.136Z,19.00
2023-01-29T05:51:50.816Z,17.73
2023-01-29T05:54:17.469Z,17.83
2023-01-29T05:56:44.073Z,17.42
2023-01-29T05:59:10.750Z,17.83
2023-01-29T06:01:37.390Z,16.97
2023-01-29T06:04:04.109Z,16.88
2023-01-29T06:06:30.838Z,17.17
2023-01-29T06:08:57.443Z,16.88
2023-01-29T06:11:24.206Z,16.88
2023-01-29T06:13:50.835Z,17.77
2023-01-29T06:16:17.474Z,16.80
2023-01-29T06:18:44.063Z,17.23
2023-01-29T06:21:13.303Z,16.83
2023-01-29T06:23:40.568Z,16.80
2023-01-29T06:26:11.497Z,16.70
2023-01-29T06:28:38.391Z,16.83
2023-01-29T06:31:37.422Z,16.40
2023-01-29T06:33:53.636Z,16.60
2023-01-29T06:36:20.339Z,15.70
2023-01-29T06:38:47.267Z,15.67
2023-01-29T06:41:17.691Z,15.50
2023-01-29T06:43:45.478Z,16.58
2023-01-29T06:46:12.204Z,15.20
2023-01-29T06:48:39.024Z,16.50
2023-01-29T06:51:07.753Z,15.23
2023-01-29T06:53:36.037Z,15.27
2023-01-29T06:56:03.609Z,15.75
2023-01-29T06:58:30.268Z,15.45
2023-01-29T07:01:05.322Z,16.38
2023-01-29T07:03:32.600Z,14.50
2023-01-29T07:05:59.563Z,13.85
2023-01-29T07:08:26.265Z,16.55
2023-01-29T07:10:52.899Z,15.32
2023-01-29T07:13:19.475Z,15.15
2023-01-29T07:15:46.208Z,14.97
2023-01-29T07:18:12.842Z,15.30
2023-01-29T07:20:40.778Z,15.93
2023-01-29T07:23:10.742Z,14.90
2023-01-29T07:25:37.588Z,15.70
2023-01-29T07:28:04.844Z,14.93
2023-01-29T07:30:32.005Z,14.70
2023-01-29T07:33:04.708Z,15.30
2023-01-29T07:35:35.767Z,16.05
2023-01-29T07:38:02.458Z,14.98
2023-01-29T07:40:29.121Z,14.47
2023-01-29T07:43:00.012Z,15.02
2023-01-29T07:45:26.847Z,15.07
2023-01-29T07:47:55.092Z,13.98
2023-01-29T07:50:26.157Z,14.80
2023-01-29T07:52:54.751Z,15.20
2023-01-29T07:55:21.387Z,15.95
2023-01-29T07:57:48.067Z,14.30
2023-01-29T08:00:15.468Z,14.50
2023-01-29T08:02:42.318Z,14.52
2023-01-29T08:05:09.237Z,14.00
2023-01-29T08:07:35.841Z,13.95
2023-01-29T08:10:02.489Z,14.63
2023-01-29T08:12:29.155Z,14.98
2023-01-29T08:14:55.783Z,14.13
2023-01-29T08:17:22.363Z,12.50
2023-01-29T08:19:48.989Z,13.43
2023-01-29T08:22:16.497Z,13.45
2023-01-29T08:24:53.825Z,13.90
2023-01-29T08:27:26.595Z,12.98
2023-01-29T08:29:53.195Z,13.37
2023-01-29T08:32:19.781Z,14.05
2023-01-29T08:34:46.365Z,13.32
2023-01-29T08:37:12.972Z,13.63
2023-01-29T08:39:39.626Z,12.57
2023-01-29T08:42:06.251Z,12.50
2023-01-29T08:44:32.843Z,12.60
2023-01-29T08:46:59.544Z,13.35
2023-01-29T08:49:26.375Z,14.13
2023-01-29T08:51:54.700Z,13.35
2023-01-29T08:54:21.290Z,13.70
2023-01-29T08:56:47.942Z,13.65
2023-01-29T08:59:14.806Z,13.10
2023-01-29T09:01:41.560Z,12.43
2023-01-29T09:04:08.191Z,13.23
2023-01-29T09:06:35.144Z,14.03
2023-01-29T09:09:01.762Z,13.02
2023-01-29T09:11:28.389Z,14.32
2023-01-29T09:13:55.030Z,13.32
2023-01-29T09:16:21.633Z,13.50
2023-01-29T09:18:48.199Z,11.50
2023-01-29T09:21:14.816Z,13.57
2023-01-29T09:23:41.439Z,13.13
2023-01-29T09:26:09.043Z,12.77
2023-01-29T09:28:35.640Z,13.30
2023-01-29T09:31:02.960Z,13.20
2023-01-29T09:33:30.883Z,13.77
2023-01-29T09:35:57.579Z,13.10
2023-01-29T09:38:24.183Z,12.00
2023-01-29T09:41:19.810Z,13.70
2023-01-29T09:43:55.257Z,13.17
2023-01-29T09:46:40.993Z,12.88
2023-01-29T09:49:14.702Z,13.00
2023-01-29T09:51:46.618Z,12.95
2023-01-29T09:54:29.339Z,13.85
2023-01-29T09:56:57.431Z,14.23
2023-01-29T09:59:27.581Z,13.15
2023-01-29T10:02:36.070Z,14.00
2023-01-29T10:05:18.092Z,13.13
2023-01-29T10:08:26.551Z,14.18
2023-01-29T10:11:15.104Z,13.93
2023-01-29T10:13:59.621Z,14.00
2023-01-29T10:16:42.511Z,12.88
2023-01-29T10:19:34.082Z,14.23
2023-01-29T10:22:37.816Z,13.13
2023-01-29T10:25:09.820Z,13.13
2023-01-29T10:27:40.364Z,12.65
2023-01-29T10:30:28.806Z,13.93
2023-01-29T10:32:59.389Z,14.35
2023-01-29T10:35:35.783Z,13.52
2023-01-29T10:38:15.536Z,13.57
2023-01-29T10:40:53.977Z,15.65
2023-01-29T10:43:35.623Z,14.05
2023-01-29T10:46:24.135Z,14.00
2023-01-29T10:49:26.954Z,14.32
2023-01-29T10:52:23.281Z,14.47
2023-01-29T10:55:19.096Z,15.32
2023-01-29T10:58:10.595Z,14.68
2023-01-29T11:00:41.537Z,8.48
2023-01-29T11:03:28.316Z,15.60
2023-01-29T11:06:19.487Z,15.13
2023-01-29T11:08:49.492Z,14.85
2023-01-29T11:11:18.387Z,15.20
2023-01-29T11:13:47.550Z,15.55
2023-01-29T11:16:14.497Z,14.80
2023-01-29T11:18:53.049Z,16.70
2023-01-29T11:21:19.958Z,16.23
2023-01-29T11:23:46.669Z,15.93
2023-01-29T11:26:18.327Z,15.77
2023-01-29T11:28:47.788Z,15.68
2023-01-29T11:31:36.998Z,17.40
2023-01-29T11:34:12.880Z,15.30
2023-01-29T11:36:39.954Z,16.77
2023-01-29T11:39:20.246Z,16.73
2023-01-29T11:41:59.211Z,17.10
2023-01-29T11:44:42.843Z,17.37
2023-01-29T11:47:24.056Z,11.05
2023-01-29T11:49:54.351Z,18.15
2023-01-29T11:52:23.741Z,18.17
2023-01-29T11:54:52.792Z,17.90
2023-01-29T11:57:30.242Z,18.00
2023-01-29T12:00:04.787Z,18.17
2023-01-29T12:02:36.235Z,18.67
2023-01-29T12:05:20.941Z,18.15
2023-01-29T12:07:50.264Z,17.40
2023-01-29T12:10:40.908Z,18.63
2023-01-29T12:13:10.702Z,19.10
2023-01-29T12:15:38.883Z,18.17
2023-01-29T12:18:05.722Z,18.10
2023-01-29T12:20:42.420Z,19.00
2023-01-29T12:23:23.719Z,18.70
2023-01-29T12:26:17.764Z,16.23
2023-01-29T12:29:25.256Z,18.30
2023-01-29T12:31:54.606Z,19.25
2023-01-29T12:34:46.178Z,19.20
2023-01-29T12:37:44.766Z,18.50
2023-01-29T12:40:16.826Z,18.40
2023-01-29T12:42:49.171Z,17.35
2023-01-29T12:45:22.509Z,19.13
2023-01-29T12:47:53.445Z,18.27
2023-01-29T12:50:32.854Z,18.27
2023-01-29T12:53:26.123Z,18.20
2023-01-29T12:56:15.819Z,19.13
2023-01-29T12:58:49.652Z,17.38
2023-01-29T13:01:36.687Z,19.02
2023-01-29T13:04:12.428Z,18.77
2023-01-29T13:06:44.677Z,17.35
2023-01-29T13:09:19.131Z,18.98
2023-01-29T13:12:07.076Z,18.50
2023-01-29T13:14:53.363Z,19.08
2023-01-29T13:17:37.468Z,18.80
2023-01-29T13:20:12.579Z,18.95
2023-01-29T13:22:40.779Z,18.77
2023-01-29T13:25:15.536Z,19.50
2023-01-29T13:27:43.752Z,18.55
2023-01-29T13:30:31.522Z,16.97
2023-01-29T13:33:10.542Z,18.75
2023-01-29T13:35:41.231Z,19.08
2023-01-29T13:38:25.307Z,19.48
2023-01-29T13:41:00.426Z,18.83
2023-01-29T13:43:30.357Z,16.97
2023-01-29T13:45:56.963Z,19.17
2023-01-29T13:48:29.183Z,18.63
2023-01-29T13:50:59.628Z,18.05
2023-01-29T13:53:38.110Z,18.88
2023-01-29T13:56:32.669Z,16.67
2023-01-29T13:59:01.678Z,18.17
2023-01-29T14:01:46.987Z,17.15
2023-01-29T14:04:21.516Z,18.15
2023-01-29T14:06:50.699Z,16.92
2023-01-29T14:09:49.887Z,16.90
2023-01-29T14:12:22.356Z,16.13
2023-01-29T14:14:49.069Z,16.88
2023-01-29T14:17:17.198Z,18.27
2023-01-29T14:19:51.072Z,17.52
2023-01-29T14:22:27.478Z,15.00
2023-01-29T14:24:57.895Z,17.13
2023-01-29T14:27:25.768Z,16.55
2023-01-29T14:30:02.679Z,15.90
2023-01-29T14:32:30.096Z,16.67
2023-01-29T14:34:56.679Z,17.63
2023-01-29T14:37:35.441Z,15.90
2023-01-29T14:40:11.217Z,15.85
2023-01-29T14:42:55.781Z,14.15
2023-01-29T14:45:32.073Z,15.70
2023-01-29T14:48:18.892Z,15.20
2023-01-29T14:50:51.026Z,16.73
2023-01-29T14:53:33.860Z,16.05
2023-01-29T14:56:24.763Z,16.30
2023-01-29T14:59:05.795Z,14.32
2023-01-29T15:01:40.400Z,13.93
2023-01-29T15:04:20.085Z,15.73
2023-01-29T15:07:04.241Z,16.70
2023-01-29T15:09:46.337Z,13.63
2023-01-29T15:12:36.133Z,16.23
2023-01-29T15:15:23.967Z,16.63
2023-01-29T15:18:03.328Z,17.13
2023-01-29T15:20:38.099Z,17.60
2023-01-29T15:23:23.522Z,16.58
2023-01-29T15:25:54.173Z,15.82
2023-01-29T15:28:21.634Z,15.80
2023-01-29T15:30:54.723Z,16.70
2023-01-29T15:33:21.774Z,16.05
2023-01-29T15:35:51.651Z,16.30
2023-01-29T15:38:22.638Z,15.73
2023-01-29T15:41:01.095Z,15.97
2023-01-29T15:43:57.006Z,15.85
2023-01-29T15:46:30.400Z,14.85
2023-01-29T15:48:59.877Z,14.65
2023-01-29T15:51:28.183Z,15.18
2023-01-29T15:54:04.201Z,15.40
2023-01-29T15:56:40.541Z,14.20
2023-01-29T15:59:13.585Z,12.55
2023-01-29T16:01:40.247Z,14.65
2023-01-29T16:04:13.976Z,14.45
2023-01-29T16:06:42.642Z,15.23
2023-01-29T16:09:17.361Z,15.07
2023-01-29T16:11:45.368Z,15.45
2023-01-29T16:14:17.521Z,14.95
2023-01-29T16:16:45.093Z,13.77
2023-01-29T16:19:29.395Z,16.80
2023-01-29T16:22:01.635Z,15.73
2023-01-29T16:24:31.088Z,16.67
2023-01-29T16:27:07.297Z,15.70
2023-01-29T16:29:35.474Z,15.57
2023-01-29T16:32:03.290Z,14.97
2023-01-29T16:34:37.345Z,15.80
2023-01-29T16:37:08.590Z,16.85
2023-01-29T16:39:46.845Z,15.98
2023-01-29T16:42:17.161Z,17.85
2023-01-29T16:44:51.741Z,16.27
2023-01-29T16:47:59.029Z,16.20
2023-01-29T16:50:40.668Z,16.73
2023-01-29T16:53:19.708Z,15.25
2023-01-29T16:55:49.389Z,16.13
2023-01-29T16:58:22.599Z,16.23
2023-01-29T17:00:53.261Z,16.08
2023-01-29T17:03:20.891Z,16.17
2023-01-29T17:05:48.062Z,15.38
2023-01-29T17:08:25.426Z,16.80
2023-01-29T17:10:52.887Z,17.70
2023-01-29T17:13:29.594Z,17.60
2023-01-29T17:16:13.921Z,17.38
2023-01-29T17:18:40.610Z,15.30
2023-01-29T17:21:07.219Z,17.30
2023-01-29T17:23:33.803Z,17.73
2023-01-29T17:26:00.571Z,16.45
2023-01-29T17:28:27.172Z,18.33
2023-01-29T17:31:05.958Z,18.48
2023-01-29T17:33:35.355Z,18.08
2023-01-29T17:36:02.018Z,18.47
2023-01-29T17:38:28.674Z,18.75
2023-01-29T17:41:04.613Z,18.27
2023-01-29T17:43:31.488Z,15.10
2023-01-29T17:45:58.160Z,19.30
2023-01-29T17:48:27.577Z,18.30
2023-01-29T17:50:56.968Z,18.58
2023-01-29T17:53:26.516Z,14.38
2023-01-29T17:55:57.048Z,18.25
2023-01-29T17:58:26.938Z,17.77
2023-01-29T18:00:55.328Z,16.93
2023-01-29T18:03:22.619Z,18.00
2023-01-29T18:05:50.101Z,18.27
2023-01-29T18:08:24.256Z,16.60
2023-01-29T18:10:50.849Z,18.60
2023-01-29T18:13:17.507Z,17.03
2023-01-29T18:15:44.091Z,18.63
2023-01-29T18:18:14.378Z,18.77
2023-01-29T18:20:41.256Z,18.08
2023-01-29T18:23:08.599Z,18.23
2023-01-29T18:25:35.415Z,17.37
2023-01-29T18:28:02.939Z,18.98
2023-01-29T18:30:29.943Z,17.17
2023-01-29T18:32:57.472Z,17.55
2023-01-29T18:35:25.145Z,18.45
2023-01-29T18:37:52.153Z,18.47
2023-01-29T18:40:18.982Z,15.70
2023-01-29T18:42:46.136Z,18.63
2023-01-29T18:45:13.839Z,17.80
2023-01-29T18:47:40.981Z,19.33
2023-01-29T18:50:09.134Z,17.43
2023-01-29T18:52:35.737Z,17.27
2023-01-29T18:55:02.404Z,17.73
2023-01-29T18:58:27.798Z,17.63
2023-01-29T19:00:16.427Z,18.70
2023-01-29T19:02:44.992Z,17.97
2023-01-29T19:05:11.933Z,18.92
2023-01-29T19:07:38.614Z,18.52
2023-01-29T19:10:09.149Z,17.80
2023-01-29T19:12:35.872Z,15.30
2023-01-29T19:15:02.459Z,18.33
2023-01-29T19:17:29.135Z,19.10
2023-01-29T19:20:01.860Z,15.80
2023-01-29T19:22:29.424Z,16.85
2023-01-29T19:24:56.153Z,17.60
2023-01-29T19:27:22.935Z,18.73
2023-01-29T19:29:50.935Z,18.58
2023-01-29T19:32:17.539Z,18.15
2023-01-29T19:34:44.132Z,17.58
2023-01-29T19:37:10.739Z,18.02
2023-01-29T19:39:37.325Z,13.73
2023-01-29T19:42:04.126Z,17.80
2023-01-29T19:44:30.831Z,18.58
2023-01-29T19:46:57.462Z,17.92
2023-01-29T19:49:25.211Z,17.60
2023-01-29T19:51:51.935Z,18.33
2023-01-29T19:54:20.357Z,18.15
2023-01-29T19:56:46.934Z,19.05
2023-01-29T19:59:13.611Z,18.15
2023-01-29T20:01:40.315Z,18.50
2023-01-29T20:04:07.085Z,16.80
2023-01-29T20:06:33.807Z,18.40
2023-01-29T20:09:02.804Z,18.30
2023-01-29T20:11:29.510Z,18.10
2023-01-29T20:13:56.486Z,17.23
2023-01-29T20:16:24.191Z,18.40
2023-01-29T20:18:51.023Z,19.38
2023-01-29T20:21:20.657Z,19.80
2023-01-29T20:23:50.118Z,19.17
2023-01-29T20:26:17.188Z,18.02
2023-01-29T20:28:46.752Z,19.27
2023-01-29T20:31:13.847Z,17.30
2023-01-29T20:33:40.514Z,19.00
2023-01-29T20:36:09.985Z,18.50
2023-01-29T20:38:36.855Z,18.00
2023-01-29T20:41:14.185Z,19.10
2023-01-29T20:43:41.646Z,19.33
2023-01-29T20:46:09.075Z,18.33
2023-01-29T20:48:36.203Z,18.23
2023-01-29T20:51:17.540Z,20.52
2023-01-29T20:53:46.301Z,20.43
2023-01-29T20:56:14.622Z,19.20
2023-01-29T20:58:41.807Z,19.90
2023-01-29T21:01:10.586Z,19.08
2023-01-29T21:03:38.676Z,20.75
2023-01-29T21:06:06.248Z,20.80
2023-01-29T21:08:33.320Z,18.77
2023-01-29T21:10:59.902Z,20.27
2023-01-29T21:13:26.538Z,21.10
2023-01-29T21:15:53.167Z,17.77
2023-01-29T21:18:20.164Z,20.83
2023-01-29T21:20:48.596Z,19.98
2023-01-29T21:23:15.244Z,18.80
2023-01-29T21:25:42.565Z,21.42
2023-01-29T21:28:09.176Z,20.27
2023-01-29T21:30:35.783Z,21.53
2023-01-29T21:33:02.355Z,21.70
2023-01-29T21:35:28.983Z,22.20
2023-01-29T21:37:55.836Z,20.65
2023-01-29T21:40:24.996Z,20.77
2023-01-29T21:43:10.462Z,19.90
2023-01-29T21:45:39.182Z,20.80
2023-01-29T21:48:05.986Z,22.05
2023-01-29T21:50:32.753Z,21.50
2023-01-29T21:52:59.348Z,19.58
2023-01-29T21:55:26.056Z,20.93
2023-01-29T21:57:52.615Z,20.85
2023-01-29T22:00:19.727Z,20.92
2023-01-29T22:02:46.757Z,20.65
2023-01-29T22:05:19.240Z,21.33
2023-01-29T22:07:47.018Z,20.13
2023-01-29T22:10:13.809Z,21.75
2023-01-29T22:12:40.695Z,20.90
2023-01-29T22:15:08.264Z,20.70
2023-01-29T22:17:35.341Z,20.42
2023-01-29T22:20:02.253Z,20.47
2023-01-29T22:22:28.900Z,20.50
2023-01-29T22:24:57.622Z,17.80
2023-01-29T22:27:24.440Z,20.75
2023-01-29T22:29:51.113Z,19.02
2023-01-29T22:32:17.761Z,20.40
2023-01-29T22:34:44.380Z,21.25
2023-01-29T22:37:11.001Z,20.25
2023-01-29T22:39:37.621Z,19.88
2023-01-29T22:42:04.342Z,18.50
2023-01-29T22:44:31.165Z,21.20
2023-01-29T22:46:57.799Z,19.10
2023-01-29T22:49:25.109Z,20.88
2023-01-29T22:52:09.782Z,20.98
2023-01-29T22:54:38.054Z,20.05
2023-01-29T22:57:05.467Z,20.83
2023-01-29T22:59:32.800Z,18.92
2023-01-29T23:01:59.545Z,19.00
2023-01-29T23:04:26.210Z,19.58
2023-01-29T23:06:52.813Z,18.52
2023-01-29T23:09:19.384Z,20.13
2023-01-29T23:11:46.122Z,14.07
2023-01-29T23:14:12.750Z,18.48
2023-01-29T23:16:39.408Z,19.45
2023-01-29T23:19:06.056Z,19.70
2023-01-29T23:21:32.652Z,19.23
2023-01-29T23:24:00.412Z,19.98
2023-01-29T23:26:46.912Z,18.67
2023-01-29T23:29:14.354Z,18.20
2023-01-29T23:31:41.077Z,19.33
2023-01-29T23:34:07.818Z,19.80
2023-01-29T23:36:34.537Z,19.38
2023-01-29T23:39:01.501Z,17.88
2023-01-29T23:41:28.151Z,17.77
2023-01-29T23:43:54.751Z,13.75
2023-01-29T23:46:21.406Z,19.23
2023-01-29T23:48:48.031Z,15.18
2023-01-29T23:51:14.669Z,17.35
2023-01-29T23:53:41.423Z,17.45
2023-01-29T23:56:08.170Z,16.10
2023-01-29T23:58:34.987Z,17.37
